Cayey, Puerto Rico

9:44 AM AST on January 30, 2015 (GMT -0400)
Farallón | Change Station
CLOSE
Current Station
Personal Weather Station
Location: Cayey, CAYEY
Elevation: 1378 ft
Nearby Weather Stations

Elev 1378 ft 18.10 °N, 66.11 °W | Updated 13 minutes ago

Mostly Cloudy
Mostly Cloudy
71.0 °F
Feels Like 71.0 °F
N
4.0
Wind Variable Wind from ESE
Gusts 5.0 mph

Today
High -- | Low -- °F
--% Chance of Precip.
Yesterday
High -- | Low -- °F
Precip. -- in
6:57 AM 6:17 PM
Waxing Gibbous, 82% visible
Pressure 30.03 in
Visibility 10.0 miles
Clouds Few 2600 ft
Mostly Cloudy 8500 ft
Mostly Cloudy 11000 ft
Dew Point 70 °F
Humidity 97%
Rainfall 0.00 in
Snow Depth Not available.
UV 1 out of 12
Pollen Not available.
Air Quality Not available.
Flu Activity Not available.
METAR TJSJ 301256Z 00000KT 10SM FEW026 BKN085 BKN110 24/24 A3003 RMK AO2 RAE40 SLP168 VCSH SW-NW P0003 T02390239 $

More Conditions Fewer Conditions

Pressure 30.03 in
Visibility 10.0 miles
Clouds Few 2600 ft
Mostly Cloudy 8500 ft
Mostly Cloudy 11000 ft
Dew Point 70 °F
Humidity 97%
Rainfall 0.00 in
Snow Depth Not available.
UV 1 out of 12
Pollen Not available.
Air Quality Not available.
Flu Activity Not available.
METAR TJSJ 301256Z 00000KT 10SM FEW026 BKN085 BKN110 24/24 A3003 RMK AO2 RAE40 SLP168 VCSH SW-NW P0003 T02390239 $

More Conditions Fewer Conditions

10-Day Weather Forecast

Almanac

Astronomy

Jan. 30, 2015 Rise Set
Actual Time
Civil Twilight
Nautical Twilight
Astronomical Twilight
Moon
Length of Visible Light
Length of Day
Tomorrow will be .
, % of the Moon is Illuminated

Today's Extremes

Country Highs Country Lows

Community

WunderPhotos

Upload Photos

1,791,751 photos uploaded!

WunderBlogs® & News

Nearby

Air Quality

  Air Quality AQ Index Pollutant
Not available.

Snow Depth

Station Depth Elevation

Earthquake Activity

City Distance Mag. Time & Date
Minimum magnitude displayed is 2.5.

Coastal Water Temperatures

Place Temperature

Nearby Weather Stations